createdAt,value
2019-02-18T00:03:39.422Z,2.80
2019-02-18T00:07:45.993Z,2.37
2019-02-18T00:11:49.988Z,2.13
2019-02-18T00:15:57.762Z,2.60
2019-02-18T00:20:01.730Z,2.33
2019-02-18T00:24:05.769Z,2.00
2019-02-18T00:28:09.884Z,1.90
2019-02-18T00:32:13.973Z,2.33
2019-02-18T00:36:18.007Z,2.30
2019-02-18T00:40:22.052Z,2.10
2019-02-18T00:44:26.185Z,2.03
2019-02-18T00:48:31.153Z,2.17
2019-02-18T00:52:35.352Z,2.40
2019-02-18T00:56:39.513Z,2.27
2019-02-18T01:00:43.656Z,2.20
2019-02-18T01:04:48.068Z,2.17
2019-02-18T01:08:52.028Z,2.10
2019-02-18T01:12:56.039Z,2.00
2019-02-18T01:16:59.990Z,1.70
2019-02-18T01:21:04.160Z,2.17
2019-02-18T01:25:08.965Z,2.00
2019-02-18T01:29:13.121Z,1.77
2019-02-18T01:33:17.135Z,2.00
2019-02-18T01:37:21.152Z,2.70
2019-02-18T01:41:25.143Z,2.33
2019-02-18T01:45:29.150Z,2.03
2019-02-18T01:49:33.175Z,1.90
2019-02-18T01:53:37.494Z,2.20
2019-02-18T01:57:41.612Z,2.33
2019-02-18T02:01:45.747Z,2.70
2019-02-18T02:05:49.949Z,2.27
2019-02-18T02:09:54.143Z,2.40
2019-02-18T02:13:58.175Z,2.40
2019-02-18T02:18:02.072Z,2.33
2019-02-18T02:22:06.129Z,2.10
2019-02-18T02:26:10.263Z,2.23
2019-02-18T02:30:14.340Z,2.43
2019-02-18T02:34:18.386Z,2.03
2019-02-18T02:38:22.516Z,2.03
2019-02-18T02:42:26.476Z,2.33
2019-02-18T02:46:30.542Z,2.50
2019-02-18T02:50:34.796Z,1.90
2019-02-18T02:54:38.774Z,2.50
2019-02-18T02:58:42.828Z,2.40
2019-02-18T03:02:46.916Z,2.40
2019-02-18T03:06:52.360Z,2.27
2019-02-18T03:10:56.432Z,2.90
2019-02-18T03:15:00.530Z,2.40
2019-02-18T03:19:04.415Z,2.70
2019-02-18T03:23:08.540Z,2.27
2019-02-18T03:27:12.520Z,2.30
2019-02-18T03:31:19.139Z,2.33
2019-02-18T03:35:23.362Z,2.00
2019-02-18T03:39:28.532Z,2.47
2019-02-18T03:43:32.548Z,2.37
2019-02-18T03:47:37.657Z,2.70
2019-02-18T03:51:41.792Z,2.43
2019-02-18T03:55:46.872Z,2.80
2019-02-18T04:04:45.197Z,2.27
2019-02-18T04:08:49.351Z,2.43
2019-02-18T04:12:53.378Z,2.43
2019-02-18T04:16:57.448Z,2.43
2019-02-18T04:21:01.496Z,2.40
2019-02-18T04:25:06.125Z,2.50
2019-02-18T04:29:10.253Z,2.20
2019-02-18T04:33:14.416Z,2.80
2019-02-18T04:37:18.587Z,2.53
2019-02-18T04:41:22.568Z,3.30
2019-02-18T04:45:26.651Z,2.73
2019-02-18T04:49:30.995Z,2.87
2019-02-18T04:53:35.065Z,2.30
2019-02-18T04:57:39.094Z,2.53
2019-02-18T05:01:43.213Z,2.53
2019-02-18T05:05:47.195Z,2.80
2019-02-18T05:09:51.414Z,2.67
2019-02-18T05:13:55.479Z,2.70
2019-02-18T05:17:59.625Z,2.50
2019-02-18T05:22:03.622Z,2.70
2019-02-18T05:26:07.601Z,2.50
2019-02-18T05:30:11.783Z,2.67
2019-02-18T05:34:15.757Z,2.80
2019-02-18T05:38:19.832Z,2.57
2019-02-18T05:42:23.983Z,2.77
2019-02-18T05:46:27.943Z,3.30
2019-02-18T05:50:32.054Z,2.87
2019-02-18T05:54:36.017Z,2.57
2019-02-18T05:58:40.057Z,2.50
2019-02-18T06:02:44.104Z,2.50
2019-02-18T06:06:48.396Z,2.87
2019-02-18T06:10:52.444Z,2.57
2019-02-18T06:14:56.514Z,2.53
2019-02-18T06:19:00.463Z,2.20
2019-02-18T06:23:04.734Z,3.23
2019-02-18T06:27:08.776Z,3.10
2019-02-18T06:31:12.755Z,3.50
2019-02-18T06:35:16.722Z,4.27
2019-02-18T06:39:21.123Z,3.70
2019-02-18T06:43:25.189Z,3.87
2019-02-18T06:47:29.949Z,4.27
2019-02-18T06:51:33.951Z,3.80
2019-02-18T06:55:37.962Z,2.87
2019-02-18T06:59:49.100Z,2.70
2019-02-18T07:04:12.430Z,2.63
2019-02-18T07:08:35.662Z,2.27
2019-02-18T07:12:43.346Z,2.20
2019-02-18T07:16:47.414Z,2.13
2019-02-18T07:20:51.494Z,2.57
2019-02-18T07:24:55.587Z,2.43
2019-02-18T07:28:59.586Z,2.70
2019-02-18T07:33:03.668Z,2.50
2019-02-18T07:37:07.693Z,2.40
2019-02-18T07:41:11.694Z,2.30
2019-02-18T07:45:15.839Z,2.10
2019-02-18T07:49:19.896Z,2.47
2019-02-18T07:53:24.029Z,2.70
2019-02-18T07:57:28.258Z,2.97
2019-02-18T08:01:32.198Z,2.53
2019-02-18T08:05:36.347Z,2.43
2019-02-18T08:09:40.381Z,2.77
2019-02-18T08:13:44.467Z,3.00
2019-02-18T08:17:48.457Z,2.30
2019-02-18T08:21:52.557Z,2.47
2019-02-18T08:25:56.611Z,2.77
2019-02-18T08:30:00.663Z,2.23
2019-02-18T08:34:05.012Z,2.97
2019-02-18T08:38:09.129Z,2.63
2019-02-18T08:42:13.249Z,2.93
2019-02-18T08:46:17.365Z,3.83
2019-02-18T08:50:21.651Z,2.63
2019-02-18T08:54:25.862Z,2.13
2019-02-18T08:58:29.874Z,2.77
2019-02-18T09:02:33.933Z,2.47
2019-02-18T09:06:38.168Z,3.07
2019-02-18T09:10:42.522Z,3.20
2019-02-18T09:14:46.611Z,2.97
2019-02-18T09:18:50.587Z,2.60
2019-02-18T09:23:01.045Z,2.33
2019-02-18T09:27:04.992Z,2.97
2019-02-18T09:31:09.159Z,3.20
2019-02-18T09:35:13.282Z,3.47
2019-02-18T09:39:30.098Z,2.93
2019-02-18T09:43:25.084Z,2.90
2019-02-18T09:47:29.298Z,2.90
2019-02-18T09:51:33.388Z,2.77
2019-02-18T09:55:37.352Z,2.60
2019-02-18T09:59:41.458Z,3.10
2019-02-18T10:03:45.509Z,3.10
2019-02-18T10:07:49.434Z,2.53
2019-02-18T10:11:55.325Z,3.10
2019-02-18T10:15:59.411Z,2.87
2019-02-18T10:20:03.519Z,2.63
2019-02-18T10:24:07.591Z,2.87
2019-02-18T10:28:11.740Z,3.03
2019-02-18T10:32:15.872Z,3.10
2019-02-18T10:36:19.897Z,3.10
2019-02-18T10:40:24.026Z,2.87
2019-02-18T10:44:28.065Z,2.87
2019-02-18T10:48:32.102Z,3.13
2019-02-18T10:52:36.170Z,3.20
2019-02-18T10:56:40.202Z,3.47
2019-02-18T11:00:44.654Z,2.70
2019-02-18T11:04:48.843Z,2.67
2019-02-18T11:08:52.915Z,3.02
2019-02-18T11:12:57.064Z,2.60
2019-02-18T11:17:01.887Z,2.37
2019-02-18T11:21:06.024Z,2.77
2019-02-18T11:25:10.234Z,2.02
2019-02-18T11:29:15.491Z,2.35
2019-02-18T11:33:19.738Z,2.10
2019-02-18T11:37:23.818Z,2.10
2019-02-18T11:41:29.055Z,2.67
2019-02-18T11:45:34.895Z,1.32
2019-02-18T11:49:39.178Z,1.40
2019-02-18T11:53:43.400Z,1.40
2019-02-18T11:57:47.799Z,1.37
2019-02-18T12:01:51.977Z,1.35
2019-02-18T12:05:56.038Z,1.30
2019-02-18T12:10:00.319Z,1.40
2019-02-18T12:14:04.664Z,1.25
2019-02-18T12:18:08.790Z,1.50
2019-02-18T12:22:13.016Z,1.40
2019-02-18T12:26:18.265Z,1.10
2019-02-18T12:30:22.340Z,1.15
2019-02-18T12:34:26.796Z,1.30
2019-02-18T12:38:31.156Z,1.20
2019-02-18T12:42:35.217Z,1.20
2019-02-18T12:46:39.403Z,1.07
2019-02-18T12:50:43.532Z,1.30
2019-02-18T12:54:47.904Z,1.15
2019-02-18T12:58:54.603Z,1.35
2019-02-18T13:02:57.821Z,1.42
2019-02-18T13:07:02.104Z,1.22
2019-02-18T13:11:06.284Z,1.20
2019-02-18T13:15:11.015Z,1.50
2019-02-18T13:19:15.169Z,1.82
2019-02-18T13:23:19.205Z,1.10
2019-02-18T13:27:23.222Z,1.17
2019-02-18T13:31:27.514Z,1.53
2019-02-18T13:35:31.846Z,1.13
2019-02-18T13:39:35.847Z,1.10
2019-02-18T13:43:39.911Z,1.20
2019-02-18T13:47:44.333Z,1.00
2019-02-18T13:51:56.237Z,0.93
2019-02-18T13:55:54.509Z,1.10
2019-02-18T13:59:58.446Z,1.47
2019-02-18T14:04:02.405Z,1.40
2019-02-18T14:08:06.516Z,1.87
2019-02-18T14:12:16.139Z,1.63
2019-02-18T14:16:16.570Z,1.73
2019-02-18T14:20:20.714Z,1.60
2019-02-18T14:24:25.112Z,1.40
2019-02-18T14:28:29.896Z,1.57
2019-02-18T14:32:34.230Z,1.53
2019-02-18T14:36:38.510Z,1.57
2019-02-18T14:40:42.577Z,1.60
2019-02-18T14:44:46.653Z,1.70
2019-02-18T14:48:50.794Z,2.07
2019-02-18T14:52:54.938Z,2.13
2019-02-18T14:57:01.257Z,2.20
2019-02-18T15:01:07.502Z,2.43
2019-02-18T15:05:13.069Z,2.17
2019-02-18T15:09:18.173Z,2.47
2019-02-18T15:13:22.359Z,2.90
2019-02-18T15:17:26.404Z,2.20
2019-02-18T15:21:30.357Z,2.27
2019-02-18T15:25:34.347Z,2.20
2019-02-18T15:29:38.327Z,3.03
2019-02-18T15:33:42.243Z,5.10
2019-02-18T15:37:46.378Z,8.43
2019-02-18T15:41:50.557Z,8.13
2019-02-18T15:45:55.657Z,4.13
2019-02-18T15:49:59.843Z,2.87
2019-02-18T15:54:05.266Z,2.10
2019-02-18T15:58:09.377Z,2.37
2019-02-18T16:02:13.375Z,2.97
2019-02-18T16:06:17.491Z,3.30
2019-02-18T16:10:21.497Z,2.97
2019-02-18T16:14:25.601Z,2.37
2019-02-18T16:18:29.562Z,2.00
2019-02-18T16:22:33.745Z,2.40
2019-02-18T16:26:37.963Z,2.10
2019-02-18T16:30:43.073Z,2.90
2019-02-18T16:34:47.103Z,2.87
2019-02-18T16:38:51.517Z,2.80
2019-02-18T16:42:59.204Z,2.80
2019-02-18T16:47:01.469Z,2.40
2019-02-18T16:51:05.434Z,2.53
2019-02-18T16:55:10.162Z,2.27
2019-02-18T16:59:14.226Z,2.80
2019-02-18T17:03:18.522Z,2.57
2019-02-18T17:07:22.685Z,2.33
2019-02-18T17:11:26.686Z,2.30
2019-02-18T17:15:31.120Z,3.30
2019-02-18T17:19:36.430Z,2.43
2019-02-18T17:23:40.761Z,2.60
2019-02-18T17:27:44.778Z,2.50
2019-02-18T17:31:48.811Z,2.63
2019-02-18T17:35:53.032Z,2.30
2019-02-18T17:39:57.094Z,2.27
2019-02-18T17:44:01.362Z,2.67
2019-02-18T17:48:05.339Z,2.77
2019-02-18T17:52:09.479Z,2.57
2019-02-18T17:56:13.617Z,2.43
2019-02-18T18:00:18.522Z,2.40
2019-02-18T18:04:22.698Z,2.43
2019-02-18T18:08:27.138Z,3.03
2019-02-18T18:12:31.301Z,2.60
2019-02-18T18:16:35.402Z,2.60
2019-02-18T18:20:39.407Z,2.30
2019-02-18T18:24:43.878Z,2.40
2019-02-18T18:28:47.972Z,2.53
2019-02-18T18:32:52.098Z,2.53
2019-02-18T18:36:56.183Z,2.57
2019-02-18T18:41:00.150Z,2.80
2019-02-18T18:45:04.468Z,2.37
2019-02-18T18:49:08.513Z,2.67
2019-02-18T18:53:12.959Z,2.60
2019-02-18T18:57:16.975Z,2.17
2019-02-18T19:01:21.336Z,2.43
2019-02-18T19:05:25.637Z,2.40
2019-02-18T19:09:29.688Z,2.67
2019-02-18T19:13:41.773Z,2.60
2019-02-18T19:17:39.471Z,2.60
2019-02-18T19:21:43.568Z,2.77
2019-02-18T19:25:47.666Z,5.10
2019-02-18T19:29:52.056Z,4.13
2019-02-18T19:33:56.005Z,2.93
2019-02-18T19:38:00.219Z,1.97
2019-02-18T19:42:04.071Z,2.40
2019-02-18T19:46:08.306Z,1.93
2019-02-18T19:50:12.493Z,2.40
2019-02-18T19:54:16.596Z,1.87
2019-02-18T19:58:20.870Z,2.07
2019-02-18T20:02:25.098Z,2.33
2019-02-18T20:06:30.935Z,2.30
2019-02-18T20:10:35.112Z,2.70
2019-02-18T20:14:39.087Z,2.07
2019-02-18T20:18:43.454Z,2.00
2019-02-18T20:22:49.273Z,1.97
2019-02-18T20:26:54.425Z,2.33
2019-02-18T20:30:58.517Z,2.10
2019-02-18T20:35:03.386Z,1.93
2019-02-18T20:39:07.922Z,2.27
2019-02-18T20:43:12.070Z,2.00
2019-02-18T20:47:16.057Z,1.93
2019-02-18T20:51:20.601Z,1.93
2019-02-18T20:55:24.681Z,1.83
2019-02-18T20:59:28.729Z,1.83
2019-02-18T21:03:33.201Z,2.10
2019-02-18T21:07:37.155Z,1.90
2019-02-18T21:11:41.094Z,2.13
2019-02-18T21:15:45.196Z,2.00
2019-02-18T21:19:49.745Z,1.87
2019-02-18T21:23:53.734Z,2.40
2019-02-18T21:27:57.729Z,2.23
2019-02-18T21:32:01.917Z,1.83
2019-02-18T21:36:06.086Z,2.10
2019-02-18T21:40:10.130Z,2.13
2019-02-18T21:44:14.437Z,2.17
2019-02-18T21:48:19.435Z,2.53
2019-02-18T21:52:28.435Z,2.50
2019-02-18T21:56:32.759Z,2.60
2019-02-18T22:00:36.956Z,2.97
2019-02-18T22:04:41.130Z,3.47
2019-02-18T22:08:45.318Z,2.73
2019-02-18T22:12:49.318Z,2.17
2019-02-18T22:16:53.508Z,2.20
2019-02-18T22:20:57.674Z,2.43
2019-02-18T22:25:01.613Z,2.70
2019-02-18T22:29:05.593Z,2.40
2019-02-18T22:33:09.673Z,2.23
2019-02-18T22:37:13.748Z,1.87
2019-02-18T22:41:17.880Z,2.13
2019-02-18T22:45:22.070Z,1.90
2019-02-18T22:49:26.228Z,2.20
2019-02-18T22:53:30.237Z,2.50
2019-02-18T22:57:34.533Z,2.30
2019-02-18T23:01:38.889Z,2.27
2019-02-18T23:05:43.361Z,1.93
2019-02-18T23:09:47.442Z,2.47
2019-02-18T23:13:51.563Z,2.60
2019-02-18T23:17:56.854Z,2.13
2019-02-18T23:22:01.206Z,2.33
2019-02-18T23:26:05.267Z,2.37
2019-02-18T23:30:09.293Z,2.30
2019-02-18T23:34:13.341Z,2.53
2019-02-18T23:38:17.477Z,2.47
2019-02-18T23:42:21.725Z,2.53
2019-02-18T23:46:25.710Z,2.20
2019-02-18T23:50:29.796Z,2.27
2019-02-18T23:54:33.868Z,2.60
2019-02-18T23:58:37.909Z,2.40
